• Join FlightAware (Why Join?)
  • Login
  • US Flag 
09:23PM EDT


 

Airport Tracker/Info


-or-


 

Live Flight TrackerFlight Track Log ✈ BAW4 ✈ 03-May-2012 ✈ KJFK - EGLC / LCY

Flight Track Log - Related Links

Times and Time Zones

All times are in EDT time to prevent confusion due to time zone crossing. See the BAW4 flight status page for this flight to view local times or setup timezone preferences in your user account.

Time Position Orientation Groundspeed Altitude Reporting Facility
EDT Latitude Longitude Course Direction KTS MPH feet Rate Location/Type
10:18PM 40.6000 -73.8000 108° East 176 203 1,900  Level New York TRACON
10:19PM 40.5833 -73.7333 51° Northeast 265 305 3,800 2,400 Climbing New York TRACON
10:21PM 40.6425 -73.6382 52° Northeast 277 319 7,500 3,060 Climbing FlightAware ADS-B
10:21PM 40.6564 -73.6147 52° Northeast 278 320 8,400 2,880 Climbing FlightAware ADS-B
10:21PM 40.6736 -73.5854 51° Northeast 283 326 9,400 2,640 Climbing FlightAware ADS-B
10:22PM 40.7172 -73.5131 48° Northeast 292 336 11,700 2,520 Climbing FlightAware ADS-B
10:22PM 40.7242 -73.5027 35° Northeast 293 337 12,000 2,280 Climbing FlightAware ADS-B
10:22PM 40.7360 -73.4918 North 292 336 12,400 2,340 Climbing FlightAware ADS-B
10:23PM 40.7855 -73.4862 359° North 290 334 13,900 2,340 Climbing FlightAware ADS-B
10:23PM 40.7966 -73.4864 359° North 293 337 14,200 2,220 Climbing FlightAware ADS-B
10:24PM 40.8354 -73.4870 North 293 337 15,300 2,220 Climbing FlightAware ADS-B
10:24PM 40.8691 -73.4837 19° North 309 356 16,200 2,040 Climbing FlightAware ADS-B
10:24PM 40.8718 -73.4825 26° Northeast 299 344 16,200 1,320 Level FlightAware ADS-B
10:25PM 40.9047 -73.4616 27° Northeast 324 373 16,800 1,080 Climbing FlightAware ADS-B
10:25PM 40.9159 -73.4542 27° Northeast 299 344 16,800  Level FlightAware ADS-B
10:25PM 40.9495 -73.4319 27° Northeast 367 422 16,800 420 Level FlightAware ADS-B
10:26PM 41.0020 -73.3964 27° Northeast 399 459 17,200 1,020 Climbing FlightAware ADS-B
10:26PM 41.0342 -73.3745 27° Northeast 408 470 17,700 1,620 Climbing FlightAware ADS-B
10:27PM 41.1066 -73.3252 27° Northeast 417 480 18,900 1,980 Climbing FlightAware ADS-B
10:27PM 41.1680 -73.2834 27° Northeast 429 494 20,300 2,400 Climbing FlightAware ADS-B
10:28PM 41.2246 -73.2449 27° Northeast 427 491 21,600 2,040 Climbing FlightAware ADS-B
10:28PM 41.2783 -73.2083 27° Northeast 434 499 22,500 1,620 Climbing FlightAware ADS-B
10:29PM 41.3328 -73.1711 27° Northeast 442 509 23,300 1,620 Climbing FlightAware ADS-B
10:29PM 41.3928 -73.1302 31° Northeast 450 518 24,200 1,560 Climbing FlightAware ADS-B
10:30PM 41.4695 -73.0686 40° Northeast 464 534 25,300 1,500 Climbing FlightAware ADS-B
10:31PM 41.5228 -73.0092 38° Northeast 469 540 26,100 1,560 Climbing FlightAware ADS-B
10:31PM 41.5760 -72.9542 37° Northeast 469 540 27,000 1,560 Climbing FlightAware ADS-B
10:32PM 41.6324 -72.8968 37° Northeast 472 543 27,800 1,740 Climbing FlightAware ADS-B
10:32PM 41.6853 -72.8427 37° Northeast 466 536 28,900 1,920 Climbing FlightAware ADS-B
10:33PM 41.7369 -72.7900 37° Northeast 464 534 29,800 1,680 Climbing FlightAware ADS-B
10:34PM 41.8521 -72.6719 37° Northeast 464 534 31,700 1,500 Climbing FlightAware ADS-B
10:34PM 41.9053 -72.6171 37° Northeast 466 536 32,300 1,500 Climbing FlightAware ADS-B
10:35PM 41.9569 -72.5639 38° Northeast 461 531 33,300 2,220 Climbing FlightAware ADS-B
10:35PM 42.0081 -72.5109 38° Northeast 442 509 34,600 1,860 Climbing FlightAware ADS-B
10:36PM 42.0593 -72.4579 39° Northeast 439 505 35,300 1,020 Climbing FlightAware ADS-B
10:37PM 42.1150 -72.3981 37° Northeast 450 518 35,900 360 Climbing Boston Center
10:38PM 42.2106 -72.3000 37° Northeast 440 506 36,000  Climbing Boston Center
10:39PM 42.3083 -72.1986 38° Northeast 440 506 36,000  Level Boston Center
10:40PM 42.4019 -72.1000 38° Northeast 440 506 36,000  Level Boston Center
10:41PM 42.4994 -71.9953 37° Northeast 440 506 36,000  Level Boston Center
10:42PM 42.5950 -71.8986 38° Northeast 440 506 36,000  Level Boston Center
10:43PM 42.6883 -71.7989 38° Northeast 435 501 36,000 240 Level Boston Center
10:44PM 42.7836 -71.6989 38° Northeast 435 501 36,500 480 Climbing Boston Center
10:45PM 42.8786 -71.5958 37° Northeast 435 501 37,000 240 Climbing Boston Center
10:46PM 42.9781 -71.4950 37° Northeast 423 487 37,000  Level Boston Center
10:47PM 43.0769 -71.3911 41° Northeast 430 495 37,000 -60 Level Boston Center
10:48PM 43.1697 -71.2814 38° Northeast 436 502 36,900 -60 Descending Boston Center
10:49PM 43.2667 -71.1769 39° Northeast 436 502 36,900  Level Boston Center
10:50PM 43.3614 -71.0722 39° Northeast 436 502 37,000  Climbing Boston Center
10:51PM 43.4558 -70.9672 38° Northeast 436 502 37,000  Level Boston Center
10:52PM 43.5525 -70.8617 39° Northeast 442 509 37,000  Level Boston Center
10:53PM 43.6447 -70.7589 40° Northeast 437 503 37,000  Level Boston Center
10:54PM 43.7247 -70.6675 39° Northeast 425 489 37,000  Level Boston Center
10:55PM 43.8189 -70.5611 39° Northeast 420 483 37,000  Level Boston Center
10:56PM 43.9128 -70.4572 39° Northeast 426 490 37,000  Level Boston Center
10:57PM 44.0172 -70.3411 39° Northeast 426 490 37,000  Level Boston Center
10:58PM 44.1089 -70.2367 39° Northeast 426 490 37,000  Level Boston Center
10:59PM 44.2006 -70.1319 39° Northeast 426 490 37,000  Level Boston Center
11:00PM 44.2944 -70.0269 40° Northeast 426 490 37,000  Level Boston Center
11:01PM 44.3858 -69.9214 40° Northeast 421 484 37,000  Level Boston Center
11:02PM 44.4772 -69.8156 40° Northeast 426 490 37,000  Level Boston Center
11:03PM 44.5706 -69.7067 39° Northeast 426 490 37,000  Level Boston Center
11:04PM 44.6639 -69.6000 40° Northeast 431 496 37,000  Level Boston Center
11:05PM 44.7389 -69.5117 39° Northeast 431 496 37,000  Level Boston Center
11:06PM 44.8400 -69.3953 39° Northeast 431 496 37,000  Level Boston Center
11:07PM 44.9350 -69.2847 39° Northeast 441 507 37,000  Level Boston Center
11:08PM 45.0278 -69.1769 40° Northeast 436 502 37,000  Level Boston Center
11:09PM 45.1186 -69.0689 40° Northeast 436 502 37,000  Level Boston Center
11:10PM 45.2131 -68.9572 40° Northeast 436 502 37,000  Level Boston Center
11:11PM 45.3056 -68.8483 40° Northeast 436 502 37,000  Level Boston Center
11:12PM 45.3958 -68.7392 40° Northeast 431 496 37,000  Level Boston Center
11:13PM 45.4861 -68.6297 40° Northeast 431 496 37,000  Level Boston Center
11:14PM 45.5783 -68.5200 40° Northeast 431 496 37,000  Level Boston Center
11:15PM 45.6725 -68.4064 43° Northeast 431 496 37,000  Level Boston Center
11:16PM 45.7678 -68.2778 40° Northeast 431 496 37,000  Level Boston Center
11:17PM 45.8617 -68.1664 41° Northeast 436 502 37,000  Level Boston Center
11:18PM 45.9514 -68.0522 39° Northeast 441 507 37,000  Level Boston Center
11:19PM 46.0372 -67.9528 41° Northeast 441 507 37,000  Level Boston Center
11:20PM 46.1286 -67.8378 40° Northeast 441 507 37,000 -60 Level Boston Center
11:21PM 46.2197 -67.7253 41° Northeast 441 507 36,900  Descending Boston Center
11:22PM 46.3108 -67.6094 41° Northeast 441 507 37,000  Climbing Boston Center
11:23PM 46.4019 -67.4961 41° Northeast 441 507 36,900  Descending Boston Center
11:24PM 46.4908 -67.3828 41° Northeast 441 507 37,000  Climbing Boston Center
11:25PM 46.5817 -67.2658 44° Northeast 436 502 37,000  Level Boston Center
11:26PM 46.7000 -67.1000 44° Northeast 430 495 37,000  Level Moncton Center
11:27PM 46.7833 -66.9833 39° Northeast 420 483 37,000  Level Moncton Center
11:28PM 46.8833 -66.8667 44° Northeast 430 495 37,000  Level Moncton Center
11:29PM 46.9667 -66.7500 44° Northeast 420 483 37,000  Level Moncton Center
11:30PM 47.0500 -66.6333 38° Northeast 420 483 37,000  Level Moncton Center
11:31PM 47.1500 -66.5167 39° Northeast 420 483 37,000  Level Moncton Center
11:32PM 47.2333 -66.4167 50° Northeast 420 483 37,000  Level Moncton Center
11:33PM 47.3000 -66.3000 39° Northeast 420 483 37,000  Level Gander Center
11:34PM 47.3833 -66.2000 38° Northeast 410 472 37,000  Level Gander Center
11:35PM 47.4833 -66.0833 43° Northeast 420 483 37,000  Level Gander Center
11:36PM 47.5667 -65.9667 50° Northeast 410 472 37,000  Level Gander Center
11:37PM 47.6333 -65.8500 43° Northeast 410 472 37,000  Level Gander Center
11:38PM 47.7167 -65.7333 38° Northeast 420 483 37,000  Level Gander Center
11:39PM 47.8167 -65.6167 43° Northeast 410 472 37,000  Level Gander Center
11:40PM 47.9000 -65.5000 39° Northeast 410 472 37,000  Level Gander Center
11:41PM 47.9833 -65.4000 43° Northeast 410 472 37,000  Level Gander Center
11:42PM 48.0667 -65.2833 43° Northeast 410 472 37,000  Level Gander Center
11:43PM 48.1500 -65.1667 43° Northeast 410 472 37,000  Level Gander Center
11:44PM 48.2333 -65.0500 43° Northeast 420 483 37,000  Level Gander Center
11:45PM 48.3167 -64.9333 47° Northeast 410 472 37,000  Level Gander Center
11:46PM 48.4000 -64.8000 38° Northeast 420 483 37,000  Level Moncton Center
11:47PM 48.5000 -64.6833 49° Northeast 410 472 37,000  Level Gander Center
11:48PM 48.5667 -64.5667 43° Northeast 420 483 37,000  Level Gander Center
11:49PM 48.6500 -64.4500 47° Northeast 420 483 37,000  Level Gander Center
11:50PM 48.7333 -64.3167 38° Northeast 420 483 37,000  Level Gander Center
11:51PM 48.8333 -64.2000 46° Northeast 420 483 37,000  Level Moncton Center
11:52PM 48.9167 -64.0667 46° Northeast 420 483 37,000  Level Moncton Center
11:53PM 49.0000 -63.9333 42° Northeast 420 483 37,100  Climbing Moncton Center
11:54PM 49.0833 -63.8167 46° Northeast 420 483 37,000 -60 Descending Moncton Center
11:55PM 49.1667 -63.6833 38° Northeast 420 483 37,000  Level Moncton Center
11:56PM 49.2500 -63.5833 47° Northeast 420 483 37,000  Level Moncton Center
11:57PM 49.3500 -63.4167 38° Northeast 430 495 37,000  Level Moncton Center
11:58PM 49.4333 -63.3167 44° Northeast 430 495 37,000  Level Moncton Center
11:59PM 49.5333 -63.1667 52° Northeast 440 506 37,100  Climbing Moncton Center
12:00AM 49.6000 -63.0333 42° Northeast 420 483 37,000 -60 Descending Moncton Center
12:01AM 49.6833 -62.9167 44° Northeast 450 518 37,000  Level Moncton Center
12:02AM 49.7833 -62.7667 42° Northeast 440 506 37,000  Level Moncton Center
12:03AM 49.8667 -62.6500 44° Northeast 450 518 37,000 -60 Level Moncton Center
12:04AM 49.9667 -62.5000 46° Northeast 440 506 36,900  Descending Moncton Center
12:05AM 50.0500 -62.3667 46° Northeast 430 495 37,000  Climbing Moncton Center
12:06AM 50.1333 -62.2333 46° Northeast 460 529 37,000  Level Moncton Center
12:07AM 50.2167 -62.1000 46° Northeast 430 495 37,100  Climbing Moncton Center
12:08AM 50.3000 -61.9667 49° Northeast 440 506 37,000 -60 Descending Moncton Center
12:09AM 50.3833 -61.8167 40° Northeast 440 506 37,000  Level Moncton Center
12:10AM 50.4833 -61.6833 45° Northeast 440 506 37,000  Level Moncton Center
12:11AM 50.5667 -61.5500 45° Northeast 430 495 37,000  Level Moncton Center
12:12AM 50.6500 -61.4167 48° Northeast 420 483 37,000  Level Moncton Center
12:13AM 50.7167 -61.3000 52° Northeast 430 495 37,000  Level Moncton Center
12:14AM 50.8000 -61.1333 45° Northeast 430 495 37,000  Level Moncton Center
12:15AM 50.8833 -61.0000 40° Northeast 440 506 37,000  Level Moncton Center
12:16AM 50.9833 -60.8667 55° Northeast 430 495 37,000  Level Moncton Center
12:17AM 51.0500 -60.7167 40° Northeast 440 506 37,000  Level Moncton Center
12:18AM 51.1500 -60.5833 48° Northeast 440 506 37,000  Level Moncton Center
12:19AM 51.2333 -60.4333 45° Northeast 440 506 37,000  Level Moncton Center
12:20AM 51.3167 -60.3000 48° Northeast 440 506 37,000  Level Moncton Center
12:21AM 51.4000 -60.1500 43° Northeast 440 506 37,000  Level Moncton Center
12:22AM 51.4667 -60.0500 45° Northeast 430 495 37,000  Level Gander Center
12:23AM 51.5500 -59.9167 48° Northeast 430 495 37,000  Level Gander Center
12:24AM 51.6333 -59.7667 45° Northeast 430 495 37,000  Level Gander Center
12:25AM 51.7167 -59.6333 51° Northeast 430 495 37,000  Level Gander Center
12:26AM 51.8000 -59.4667 45° Northeast 430 495 37,000  Level Gander Center
12:27AM 51.8833 -59.3333 48° Northeast 430 495 37,000  Level Gander Center
12:28AM 51.9667 -59.1833 48° Northeast 420 483 37,000  Level Moncton Center
12:29AM 52.0500 -59.0333 47° Northeast 430 495 37,000  Level Moncton Center
12:30AM 52.1167 -58.9167 48° Northeast 430 495 37,000  Level Gander Center
12:31AM 52.2000 -58.7667 46° Northeast 440 506 37,000  Level Gander Center
12:32AM 52.3000 -58.6000 51° Northeast 440 506 37,000  Level Gander Center
12:33AM 52.3667 -58.4667 54° Northeast 440 506 37,000  Level Gander Center
12:34AM 52.4333 -58.3167 44° Northeast 430 495 37,000  Level Gander Center
12:35AM 52.5167 -58.1833 48° Northeast 420 483 37,000  Level Gander Center
12:36AM 52.6000 -58.0333 47° Northeast 430 495 37,000  Level Gander Center
12:37AM 52.6833 -57.8833 44° Northeast 420 483 37,000  Level Gander Center
12:38AM 52.7667 -57.7500 54° Northeast 430 495 37,000  Level Gander Center
12:39AM 52.8333 -57.6000 47° Northeast 440 506 37,000  Level Gander Center
12:40AM 52.9167 -57.4500 50° Northeast 430 495 37,000  Level Gander Center
12:41AM 53.0000 -57.2833 61° Northeast 430 495 37,000  Level Gander Center
12:42AM 53.0500 -57.1333 56° Northeast 430 495 37,000  Level Gander Center
12:43AM 53.1167 -56.9667 53° Northeast 430 495 37,000  Level Gander Center
12:44AM 53.2000 -56.7833 63° Northeast 440 506 37,000  Level Gander Center
12:45AM 53.2500 -56.6167 59° Northeast 430 495 37,000  Level Gander Center
12:46AM 53.3167 -56.4333 56° Northeast 440 506 37,000  Level Gander Center
12:47AM 53.3833 -56.2667 65° Northeast 430 495 37,000  Level Gander Center
12:48AM 53.4333 -56.0833 47° Northeast 430 495 37,000  Level Gander Center
12:49AM 53.5167 -55.9333 63° Northeast 430 495 37,000  Level Gander Center
12:50AM 53.5667 -55.7667 58° Northeast 420 483 37,000  Level Gander Center
12:51AM 53.6333 -55.5833 61° Northeast 420 483 37,000  Level Gander Center
12:52AM 53.6833 -55.4333 61° Northeast 430 495 37,000  Level Gander Center
12:53AM 53.7500 -55.2333 61° Northeast 420 483 37,000  Level Gander Center
12:54AM 53.8000 -55.0833 46° Northeast 420 483 37,000  Level Gander Center
12:55AM 53.8667 -54.9667 360° North 429 494 37,000  Level ETMS Enhanced Traffic Management System
12:55AM 53.8667 -54.9667 77° East 429 494 37,000  Level ETMS Enhanced Traffic Management System
12:56AM 53.9000 -54.7167 60° Northeast 430 495 37,000  Level Gander Center
12:57AM 53.9667 -54.5167 73° East 430 495 37,000  Level Gander Center
12:58AM 54.0000 -54.3333 73° East 430 495 37,000  Level Gander Center
12:59AM 54.0333 -54.1500 67° East 430 495 37,000  Level Gander Center
01:16AM 54.7667 -50.9667 65° Northeast 420 483 37,000  Level Gander Center
01:17AM 54.8167 -50.7833 75° East 430 495 37,000  Level Gander Center
01:18AM 54.8500 -50.5667 65° Northeast 430 495 37,000  Level Gander Center
01:19AM 54.9000 -50.3833 82° East 430 495 37,000  Level Gander Center
01:20AM 54.9167 -50.1667 49° Northeast 430 495 37,000  Level Gander Center
01:23AM 55.0000 -50.0000 66° East 435 501 37,000  Level ETMS Enhanced Traffic Management System
02:11AM 57.0000 -40.0000 86° East 455 524 37,000  Level ETMS Enhanced Traffic Management System
02:55AM 57.0000 -30.0000 96° East 469 540 37,000  Level ETMS Enhanced Traffic Management System
02:55AM 56.9784 -29.5126 97° East  Level FlightAware Approximate
03:02AM 56.8533 -27.8073 98° East 469 540 37,000  Level FlightAware Transoceanic
03:03AM 56.8351 -27.5713 98° East 469 540 37,000  Level FlightAware Transoceanic
03:04AM 56.8165 -27.3356 98° East 469 540 37,000  Level FlightAware Transoceanic
03:05AM 56.7975 -27.1001 98° East 469 540 37,000  Level FlightAware Transoceanic
03:06AM 56.7780 -26.8649 99° East 469 540 37,000  Level FlightAware Transoceanic
03:07AM 56.7581 -26.6299 99° East 469 540 37,000  Level FlightAware Transoceanic
03:08AM 56.7377 -26.3951 99° East 469 540 37,000  Level FlightAware Transoceanic
03:09AM 56.7169 -26.1606 99° East 469 540 37,000  Level FlightAware Transoceanic
03:10AM 56.6956 -25.9264 99° East 469 540 37,000  Level FlightAware Transoceanic
03:11AM 56.6740 -25.6924 100° East 469 540 37,000  Level FlightAware Transoceanic
03:12AM 56.6518 -25.4587 100° East 469 540 37,000  Level FlightAware Transoceanic
03:13AM 56.6293 -25.2253 100° East 469 540 37,000  Level FlightAware Transoceanic
03:14AM 56.6063 -24.9921 100° East 469 540 37,000  Level FlightAware Transoceanic
03:15AM 56.5828 -24.7593 100° East 469 540 37,000  Level FlightAware Transoceanic
03:16AM 56.5590 -24.5267 101° East 469 540 37,000  Level FlightAware Transoceanic
03:17AM 56.5347 -24.2945 101° East 469 540 37,000  Level FlightAware Transoceanic
03:18AM 56.5099 -24.0625 101° East 469 540 37,000  Level FlightAware Transoceanic
03:19AM 56.4847 -23.8309 101° East 469 540 37,000  Level FlightAware Transoceanic
03:20AM 56.4591 -23.5995 101° East 469 540 37,000  Level FlightAware Transoceanic
03:21AM 56.4331 -23.3685 102° East 469 540 37,000  Level FlightAware Transoceanic
03:22AM 56.4067 -23.1378 102° East 469 540 37,000  Level FlightAware Transoceanic
03:23AM 56.3798 -22.9074 102° East 469 540 37,000  Level FlightAware Transoceanic
03:24AM 56.3525 -22.6773 102° East 469 540 37,000  Level FlightAware Transoceanic
03:25AM 56.3247 -22.4476 102° East 469 540 37,000  Level FlightAware Transoceanic
03:26AM 56.2966 -22.2182 103° East 469 540 37,000  Level FlightAware Transoceanic
03:27AM 56.2680 -21.9891 103° East 469 540 37,000  Level FlightAware Transoceanic
03:28AM 56.2390 -21.7604 103° East 469 540 37,000  Level FlightAware Transoceanic
03:29AM 56.2096 -21.5320 103° East 469 540 37,000  Level FlightAware Transoceanic
03:30AM 56.1797 -21.3040 103° East 469 540 37,000  Level FlightAware Transoceanic
03:31AM 56.1494 -21.0764 104° East 469 540 37,000  Level FlightAware Transoceanic
03:32AM 56.1188 -20.8491 104° East 469 540 37,000  Level FlightAware Transoceanic
03:33AM 56.0877 -20.6221 104° East 469 540 37,000  Level FlightAware Transoceanic
03:34AM 56.0561 -20.3956 104° East 469 540 37,000  Level FlightAware Transoceanic
03:35AM 56.0242 -20.1694 98° East 469 540 37,000  Level FlightAware Transoceanic
03:36AM 55.9957 -19.9601 98° East  Level FlightAware Approximate
03:37AM 55.9728 -19.7487 98° East  Level FlightAware Approximate
03:38AM 55.9495 -19.5376 98° East  Level FlightAware Approximate
03:39AM 55.9259 -19.3267 98° East  Level FlightAware Approximate
03:40AM 55.9019 -19.1161 99° East  Level FlightAware Approximate
03:41AM 55.8776 -18.9058 99° East  Level FlightAware Approximate
03:42AM 55.8529 -18.6957 99° East  Level FlightAware Approximate
03:43AM 55.8278 -18.4859 99° East  Level FlightAware Approximate
03:44AM 55.8024 -18.2764 99° East  Level FlightAware Approximate
03:45AM 55.7766 -18.0671 99° East  Level FlightAware Approximate
03:46AM 55.7505 -17.8581 99° East  Level FlightAware Approximate
03:47AM 55.7240 -17.6494 100° East  Level FlightAware Approximate
03:48AM 55.6971 -17.4410 100° East  Level FlightAware Approximate
03:49AM 55.6699 -17.2328 100° East  Level FlightAware Approximate
03:50AM 55.6424 -17.0250 100° East  Level FlightAware Approximate
03:51AM 55.6145 -16.8174 100° East  Level FlightAware Approximate
03:52AM 55.5863 -16.6102 100° East  Level FlightAware Approximate
03:53AM 55.5577 -16.4032 100° East  Level FlightAware Approximate
03:54AM 55.5288 -16.1966 100° East  Level FlightAware Approximate
03:55AM 55.4995 -15.9902 101° East  Level FlightAware Approximate
03:56AM 55.4698 -15.7842 101° East  Level FlightAware Approximate
03:57AM 55.4398 -15.5785 101° East  Level FlightAware Approximate
03:58AM 55.4095 -15.3731 101° East  Level FlightAware Approximate
03:59AM 55.3788 -15.1680 101° East  Level FlightAware Approximate
04:00AM 55.3478 -14.9632 101° East  Level FlightAware Approximate
04:01AM 55.3165 -14.7588 101° East  Level FlightAware Approximate
04:02AM 55.2848 -14.5547 101° East  Level FlightAware Approximate
04:03AM 55.2528 -14.3509 101° East  Level FlightAware Approximate
04:04AM 55.2204 -14.1474 101° East  Level FlightAware Approximate
04:05AM 55.1877 -13.9442 102° East  Level FlightAware Approximate
04:06AM 55.1546 -13.7414 102° East  Level FlightAware Approximate
04:07AM 55.1213 -13.5390 102° East  Level FlightAware Approximate
04:08AM 55.0875 -13.3369 102° East  Level FlightAware Approximate
04:09AM 55.0535 -13.1351 102° East  Level FlightAware Approximate
04:10AM 55.0191 -12.9336 102° East  Level FlightAware Approximate
04:11AM 54.9844 -12.7325 102° East  Level FlightAware Approximate
04:12AM 54.9493 -12.5318 102° East  Level FlightAware Approximate
04:13AM 54.9139 -12.3314 102° East  Level FlightAware Approximate
04:14AM 54.8782 -12.1314 102° East  Level FlightAware Approximate
04:15AM 54.8422 -11.9317 102° East  Level FlightAware Approximate
04:16AM 54.8058 -11.7324 102° East  Level FlightAware Approximate
04:17AM 54.7691 -11.5334 102° East  Level FlightAware Approximate
04:18AM 54.7321 -11.3348 102° East  Level FlightAware Approximate
04:19AM 54.6948 -11.1366 102° East  Level FlightAware Approximate
04:20AM 54.6571 -10.9387 102° East  Level FlightAware Approximate
04:21AM 54.6192 -10.7412 102° East  Level FlightAware Approximate
04:22AM 54.5809 -10.5441 102° East  Level FlightAware Approximate
04:23AM 54.5422 -10.3473 102° East  Level FlightAware Approximate
04:24AM 54.4976 -10.1547 102° East  Level FlightAware Approximate
04:25AM 54.4566 -9.9598 102° East  Level FlightAware Approximate
04:26AM 54.4153 -9.7653 102° East  Level FlightAware Approximate
04:27AM 54.3737 -9.5712 102° East  Level FlightAware Approximate
04:28AM 54.3317 -9.3774 102° East  Level FlightAware Approximate
04:29AM 54.2895 -9.1841 102° East  Level FlightAware Approximate
04:30AM 54.2469 -8.9911 102° East  Level FlightAware Approximate
04:31AM 54.2041 -8.7986 101° East  Level FlightAware Approximate
04:32AM 54.1609 -8.6065 101° East  Level FlightAware Approximate
04:33AM 54.1174 -8.4147 101° East  Level FlightAware Approximate
04:34AM 54.0737 -8.2234 101° East  Level FlightAware Approximate
04:35AM 54.0296 -8.0324 100° East  Level FlightAware Approximate
04:36AM 53.9852 -7.8419 100° East  Level FlightAware Approximate
04:37AM 53.9405 -7.6518 100° East  Level FlightAware Approximate
04:38AM 53.8955 -7.4621 99° East  Level FlightAware Approximate
04:39AM 53.8502 -7.2728 99° East  Level FlightAware Approximate
04:40AM 53.8047 -7.0839 98° East  Level FlightAware Approximate
04:41AM 53.7588 -6.8954 98° East  Level FlightAware Approximate
04:42AM 53.7126 -6.7073 97° East  Level FlightAware Approximate
04:43AM 53.6661 -6.5197 96° East  Level FlightAware Approximate
04:44AM 53.6194 -6.3324 95° East  Level FlightAware Approximate
04:45AM 53.5723 -6.1456 94° East  Level FlightAware Approximate
04:46AM 53.5250 -5.9592 93° East  Level FlightAware Approximate
04:47AM 53.4774 -5.7732 92° East  Level FlightAware Approximate
04:48AM 53.4294 -5.5876 90° East  Level FlightAware Approximate
04:49AM 53.4642 -5.4090 92° East  Level FlightAware Approximate
04:50AM 53.4072 -5.2309 89° East  Level FlightAware Approximate
04:51AM 53.3499 -5.0533 86° East  Level FlightAware Approximate
04:56AM 53.4050 -3.2373 96° East 438 504 38,000  Level FlightAware ADS-B
04:57AM 53.3979 -3.1183 96° East 434 499 38,000  Level FlightAware ADS-B
04:58AM 53.3853 -2.9093 96° East 433 498 38,000  Level FlightAware ADS-B
04:58AM 53.3788 -2.8067 96° East 434 499 38,000  Level FlightAware ADS-B
04:59AM 53.3719 -2.7022 97° East 434 499 38,000  Level FlightAware ADS-B
05:00AM 53.3631 -2.5866 142° Southeast 435 501 38,000 -660 Level FlightAware ADS-B
05:06AM 52.7628 -1.8062 149° Southeast 436 502 33,700 -720 Descending FlightAware ADS-B
05:07AM 52.7046 -1.7491 149° Southeast 435 501 33,100 -1,620 Descending FlightAware ADS-B
05:07AM 52.6545 -1.7000 149° Southeast 442 509 32,000 -3,480 Descending FlightAware ADS-B
05:08AM 52.5357 -1.5833 149° Southeast 443 510 27,600 -3,840 Descending FlightAware ADS-B
05:09AM 52.4832 -1.5310 148° Southeast 439 505 25,800 -3,600 Descending FlightAware ADS-B
05:09AM 52.4312 -1.4768 147° Southeast 433 498 24,000 -3,480 Descending FlightAware ADS-B
05:10AM 52.3759 -1.4188 147° Southeast 427 491 22,100 -3,480 Descending FlightAware ADS-B
05:10AM 52.3265 -1.3671 147° Southeast 420 483 20,400 -2,580 Descending FlightAware ADS-B
05:11AM 52.2771 -1.3154 148° Southeast 394 453 19,500 -1,680 Descending FlightAware ADS-B
05:11AM 52.2310 -1.2677 148° Southeast 371 427 18,700 -1,560 Descending FlightAware ADS-B
05:11AM 52.2135 -1.2497 148° Southeast 364 419 18,400 -1,500 Descending FlightAware ADS-B
05:12AM 52.1690 -1.2035 148° Southeast 353 406 17,600 -1,440 Descending FlightAware ADS-B
05:13AM 52.1288 -1.1620 147° Southeast 346 398 16,900 -1,500 Descending FlightAware ADS-B
05:13AM 52.0941 -1.1255 142° Southeast 348 400 16,200 -1,560 Descending FlightAware ADS-B
05:13AM 52.0838 -1.1124 137° Southeast 346 398 16,000 -1,020 Descending FlightAware ADS-B
05:13AM 52.0770 -1.1021 132° Southeast 345 397 15,900 -1,380 Descending FlightAware ADS-B
05:14AM 52.0389 -1.0325 131° Southeast 330 380 15,100 -900 Descending FlightAware ADS-B
05:14AM 52.0073 -0.9743 128° Southeast 337 388 15,000 -300 Descending FlightAware ADS-B
05:14AM 51.9982 -0.9555 122° Southeast 340 391 14,900 -1,020 Descending FlightAware ADS-B
05:15AM 51.9909 -0.9365 117° Southeast 341 392 14,700 -1,560 Descending FlightAware ADS-B
05:15AM 51.9695 -0.8678 117° Southeast 339 390 13,900 -1,500 Descending FlightAware ADS-B
05:16AM 51.9493 -0.8030 117° Southeast 333 383 13,200 -1,440 Descending FlightAware ADS-B
05:16AM 51.9267 -0.7315 117° Southeast 333 383 12,400 -1,500 Descending FlightAware ADS-B
05:17AM 51.9064 -0.6669 114° Southeast 331 381 11,700 -1,680 Descending FlightAware ADS-B
05:17AM 51.9024 -0.6524 109° East 332 382 11,500 -1,860 Descending FlightAware ADS-B
05:17AM 51.8989 -0.6356 102° East 331 381 11,300 -1,440 Descending FlightAware ADS-B
05:17AM 51.8888 -0.5613 102° East 323 372 10,600 -1,260 Descending FlightAware ADS-B
05:18AM 51.8788 -0.4845 102° East 318 366 10,000 -1,140 Descending FlightAware ADS-B
05:18AM 51.8741 -0.4499 103° East 310 357 9,700 -1,200 Descending FlightAware ADS-B
05:18AM 51.8694 -0.4159 102° East 299 344 9,400 -1,200 Descending FlightAware ADS-B
05:19AM 51.8650 -0.3837 103° East 294 338 9,100 -1,020 Descending FlightAware ADS-B
05:19AM 51.8605 -0.3512 103° East 293 337 8,900 -1,020 Descending FlightAware ADS-B
05:19AM 51.8560 -0.3187 103° East 293 337 8,600 -1,200 Descending FlightAware ADS-B
05:19AM 51.8514 -0.2858 103° East 292 336 8,300 -1,020 Descending FlightAware ADS-B
05:20AM 51.8467 -0.2531 105° East 291 335 8,100 -780 Descending FlightAware ADS-B
05:20AM 51.8436 -0.2338 111° Southeast 290 334 8,000 -480 Descending FlightAware ADS-B
05:20AM 51.8418 -0.2262 118° Southeast 289 333 8,000  Level FlightAware ADS-B
05:20AM 51.8393 -0.2185 125° Southeast 289 333 8,000  Level FlightAware ADS-B
05:20AM 51.8349 -0.2082 130° Southeast 289 333 8,000  Level FlightAware ADS-B
05:20AM 51.8219 -0.1831 130° Southeast 290 334 8,000 -600 Level FlightAware ADS-B
05:21AM 51.8078 -0.1559 130° Southeast 289 333 7,700 -1,140 Descending FlightAware ADS-B
05:21AM 51.7942 -0.1295 130° Southeast 289 333 7,400 -1,140 Descending FlightAware ADS-B
05:21AM 51.7808 -0.1038 131° Southeast 288 331 7,100 -1,140 Descending FlightAware ADS-B
05:21AM 51.7668 -0.0773 130° Southeast 287 330 6,800 -1,140 Descending FlightAware ADS-B
05:22AM 51.7531 -0.0513 130° Southeast 280 322 6,500 -960 Descending FlightAware ADS-B
05:22AM 51.7409 -0.0282 130° Southeast 273 314 6,300 -1,080 Descending FlightAware ADS-B
05:22AM 51.7262 0.0004 130° Southeast 263 303 5,900 -1,260 Descending FlightAware ADS-B
05:22AM 51.7136 0.0244 131° Southeast 259 298 5,600 -1,080 Descending FlightAware ADS-B
05:23AM 51.7000 0.0498 130° Southeast 255 293 5,300 -1,080 Descending FlightAware ADS-B
05:23AM 51.6871 0.0743 130° Southeast 250 288 5,000 -1,140 Descending FlightAware ADS-B
05:23AM 51.6749 0.0976 130° Southeast 246 283 4,700 -900 Descending FlightAware ADS-B
05:24AM 51.6410 0.1618 206° Southwest 246 283 4,100 -780 Descending FlightAware ADS-B
05:32AM 50.8113 -0.4783 25° Northeast  Level Estimated
05:33AM 51.5000 0.0500 32° Northeast  Level FlightAware Approximate
05:34AM 51.6022 0.1525 212° Southwest  Level Estimated
05:35AM 51.5000 0.0500 32° Northeast  Level FlightAware Approximate
05:36AM 51.6022 0.1525 212° Southwest  Level Estimated
05:37AM 51.5000 0.0500 32° Northeast  Level FlightAware Approximate
05:38AM 51.6022 0.1525 212° Southwest  Level Estimated
05:39AM 51.5000 0.0500 212° Southwest  Level FlightAware Approximate